Time;durP1;ratioP1;P1;durP2;ratioP2;P2;SDS_P1;SDS_P2;PMS_P1;PMS_P2;Temp;Humidity;BMP_temperature;BMP_pressure;BME280_temperature;BME280_humidity;BME280_pressure;Samples;Min_cycle;Max_cycle;Signal;HPM_P1;HPM_P2
2023/11/11 00:01:33;;;;;;;22.23;14.63;;;;;;;10.28;100.00;99823.28;5071772;28;20028;-74
2023/11/11 00:03:58;;;;;;;21.70;13.82;;;;;;;10.40;100.00;99845.97;5050784;28;20068;-73
2023/11/11 00:06:24;;;;;;;21.30;14.38;;;;;;;10.31;100.00;99807.88;5073106;28;20030;-74
2023/11/11 00:08:49;;;;;;;26.33;13.90;;;;;;;10.58;100.00;99832.72;5072494;28;20032;-74
2023/11/11 00:11:15;;;;;;;19.00;13.60;;;;;;;10.42;100.00;99799.56;5072769;28;20475;-75
2023/11/11 00:13:40;;;;;;;24.48;14.23;;;;;;;10.12;100.00;99766.91;5072891;28;20032;-73
2023/11/11 00:16:06;;;;;;;23.55;13.40;;;;;;;10.16;100.00;99761.91;5072083;28;20056;-76
2023/11/11 00:18:33;;;;;;;19.63;13.10;;;;;;;10.36;100.00;99798.56;5072204;28;20035;-74
2023/11/11 00:21:00;;;;;;;20.45;13.27;;;;;;;10.57;100.00;99825.81;5073271;28;20043;-71
2023/11/11 00:23:26;;;;;;;21.30;13.80;;;;;;;10.61;100.00;99827.63;5072039;28;20494;-73
2023/11/11 00:25:51;;;;;;;20.00;13.43;;;;;;;10.58;100.00;99798.28;5071892;28;20090;-72
2023/11/11 00:28:17;;;;;;;20.23;12.52;;;;;;;10.66;100.00;99823.44;5072152;28;20547;-75
2023/11/11 00:30:44;;;;;;;21.83;13.52;;;;;;;10.43;100.00;99789.31;5071598;28;20450;-73
2023/11/11 00:33:10;;;;;;;19.75;13.05;;;;;;;10.56;100.00;99790.50;5071656;28;20047;-75
2023/11/11 00:35:36;;;;;;;21.55;13.10;;;;;;;10.51;100.00;99776.59;5049729;28;20020;-73
2023/11/11 00:38:04;;;;;;;21.15;13.10;;;;;;;10.55;100.00;99790.47;5053674;28;20036;-73
2023/11/11 00:40:29;;;;;;;19.75;12.63;;;;;;;10.55;100.00;99817.13;5072237;28;20021;-74
2023/11/11 00:42:55;;;;;;;18.75;12.40;;;;;;;10.37;100.00;99796.88;5071086;28;20423;-74
2023/11/11 00:45:24;;;;;;;17.83;12.10;;;;;;;10.22;100.00;99801.59;5071644;28;20111;-73
2023/11/11 00:47:50;;;;;;;23.80;13.18;;;;;;;10.12;100.00;99801.34;5071641;28;20047;-71
2023/11/11 00:50:16;;;;;;;16.40;12.20;;;;;;;10.14;100.00;99788.47;5033281;28;20033;-72
2023/11/11 00:52:41;;;;;;;18.92;12.82;;;;;;;9.94;100.00;99759.56;5071776;28;20048;-73
2023/11/11 00:55:08;;;;;;;18.45;12.73;;;;;;;10.04;100.00;99795.97;5072198;28;20029;-73
2023/11/11 00:57:35;;;;;;;19.45;12.73;;;;;;;9.63;100.00;99727.75;5071435;28;20048;-72
2023/11/11 01:00:00;;;;;;;20.88;12.07;;;;;;;10.00;100.00;99793.25;5071345;28;20035;-72
2023/11/11 01:02:26;;;;;;;18.20;12.70;;;;;;;9.85;100.00;99743.00;5071532;28;20021;-69
2023/11/11 01:04:51;;;;;;;18.85;12.55;;;;;;;10.05;100.00;99742.69;5070715;28;20033;-73
2023/11/11 01:07:17;;;;;;;20.45;12.85;;;;;;;10.15;100.00;99748.97;5071198;28;20040;-71
2023/11/11 01:09:42;;;;;;;20.27;12.25;;;;;;;9.91;100.00;99679.56;5072441;28;20028;-72
2023/11/11 01:12:08;;;;;;;19.70;13.73;;;;;;;10.39;100.00;99753.91;5071354;28;20033;-72
2023/11/11 01:14:34;;;;;;;19.23;12.60;;;;;;;10.35;100.00;99752.06;5071303;28;20039;-74
2023/11/11 01:17:03;;;;;;;21.55;13.60;;;;;;;10.18;100.00;99726.72;5071126;28;20456;-71
2023/11/11 01:19:29;;;;;;;18.52;12.88;;;;;;;10.27;100.00;99732.91;5070951;28;20040;-70
2023/11/11 01:21:54;;;;;;;20.48;12.50;;;;;;;9.93;100.00;99668.47;5071357;28;20029;-75
2023/11/11 01:24:20;;;;;;;22.45;13.88;;;;;;;10.24;100.00;99710.50;5071594;28;20024;-70
2023/11/11 01:26:45;;;;;;;16.60;12.27;;;;;;;10.33;100.00;99723.66;5071682;28;20028;-72
2023/11/11 01:29:11;;;;;;;20.23;12.35;;;;;;;9.97;100.00;99662.53;5070797;28;20069;-71
2023/11/11 01:31:37;;;;;;;25.15;13.10;;;;;;;10.39;100.00;99728.13;5071012;28;20027;-70
2023/11/11 01:34:04;;;;;;;19.17;12.70;;;;;;;10.36;100.00;99730.63;5070762;28;20051;-70
2023/11/11 01:36:30;;;;;;;16.65;12.55;;;;;;;10.38;100.00;99716.06;5070829;28;20052;-71
2023/11/11 01:38:55;;;;;;;19.58;12.48;;;;;;;10.41;100.00;99703.25;5071093;28;20064;-71
2023/11/11 01:41:21;;;;;;;17.27;12.32;;;;;;;10.48;100.00;99717.16;5070309;28;20051;-72
2023/11/11 01:43:47;;;;;;;16.92;11.65;;;;;;;10.48;100.00;99707.72;5070565;28;20503;-71
2023/11/11 01:46:13;;;;;;;17.52;10.82;;;;;;;10.24;100.00;99684.69;5071008;28;20038;-71
2023/11/11 01:48:40;;;;;;;16.92;11.00;;;;;;;10.34;100.00;99711.63;5070830;28;20494;-71
2023/11/11 01:51:06;;;;;;;16.35;11.13;;;;;;;10.33;100.00;99715.91;5070561;28;20060;-73
2023/11/11 01:53:33;;;;;;;16.27;11.13;;;;;;;9.86;100.00;99669.97;5070818;28;20031;-70
2023/11/11 01:55:59;;;;;;;17.63;11.73;;;;;;;10.19;100.00;99714.66;5070484;28;20115;-72
2023/11/11 01:58:26;;;;;;;16.92;11.20;;;;;;;10.10;100.00;99689.50;5070139;28;20120;-70
2023/11/11 02:00:52;;;;;;;15.23;11.27;;;;;;;10.03;100.00;99685.91;5071367;28;20082;-70
2023/11/11 02:03:20;;;;;;;17.77;11.63;;;;;;;9.83;100.00;99654.44;5070784;28;20037;-71
2023/11/11 02:05:46;;;;;;;16.70;11.80;;;;;;;9.78;100.00;99674.06;5066880;28;20545;-70
2023/11/11 02:08:12;;;;;;;21.27;12.38;;;;;;;9.95;100.00;99689.13;5070703;28;20119;-70
2023/11/11 02:10:38;;;;;;;15.40;10.73;;;;;;;9.74;100.00;99648.16;5069963;28;20080;-74
2023/11/11 02:13:05;;;;;;;16.27;11.23;;;;;;;9.99;100.00;99684.09;5070743;28;20025;-73
2023/11/11 02:15:31;;;;;;;18.02;11.07;;;;;;;9.86;100.00;99682.00;5069484;28;20462;-71
2023/11/11 02:18:03;;;;;;;16.90;11.20;;;;;;;9.87;100.00;99694.06;5070397;28;20064;-71
2023/11/11 02:20:32;;;;;;;16.02;11.23;;;;;;;9.89;100.00;99682.06;5069863;28;20066;-71
2023/11/11 02:23:02;;;;;;;21.02;12.00;;;;;;;9.79;100.00;99654.31;5070016;28;20085;-73
2023/11/11 02:25:28;;;;;;;14.93;11.13;;;;;;;9.86;100.00;99669.97;5070518;28;20035;-71
2023/11/11 02:27:54;;;;;;;16.20;11.90;;;;;;;9.88;100.00;99695.78;5069770;28;20115;-73
2023/11/11 02:30:20;;;;;;;17.17;11.55;;;;;;;9.78;100.00;99655.13;5069913;28;20036;-72
2023/11/11 02:32:45;;;;;;;17.48;12.10;;;;;;;9.99;100.00;99690.94;5069826;28;20093;-71
2023/11/11 02:35:11;;;;;;;17.40;11.40;;;;;;;9.97;100.00;99687.44;5070650;28;20564;-70
2023/11/11 02:37:36;;;;;;;15.77;11.63;;;;;;;10.00;100.00;99692.69;5070152;28;20074;-73
2023/11/11 02:40:02;;;;;;;19.45;13.13;;;;;;;9.98;100.00;99684.03;5070224;28;20032;-71
2023/11/11 02:42:28;;;;;;;16.92;11.45;;;;;;;9.43;100.00;99612.09;5069577;28;20076;-71
2023/11/11 02:44:53;;;;;;;16.40;12.18;;;;;;;9.80;100.00;99684.41;5069701;28;20033;-71
2023/11/11 02:47:18;;;;;;;17.60;12.00;;;;;;;9.82;100.00;99709.41;5069052;28;20171;-72
2023/11/11 02:49:44;;;;;;;15.65;11.45;;;;;;;9.62;100.00;99640.97;5069752;28;20040;-70
2023/11/11 02:52:10;;;;;;;21.52;12.65;;;;;;;9.80;100.00;99680.13;5069899;28;20048;-70
2023/11/11 02:54:35;;;;;;;21.10;12.35;;;;;;;9.29;100.00;99598.84;5016892;28;20128;-71
2023/11/11 02:57:01;;;;;;;21.25;12.35;;;;;;;9.81;100.00;99670.72;5069584;28;20107;-71
2023/11/11 02:59:26;;;;;;;17.60;11.88;;;;;;;9.89;100.00;99671.75;5069617;28;20098;-71
2023/11/11 03:01:51;;;;;;;18.05;11.88;;;;;;;9.81;100.00;99657.81;5069234;28;20040;-73
2023/11/11 03:04:17;;;;;;;18.42;12.63;;;;;;;9.85;100.00;99672.53;5069775;28;20070;-70
2023/11/11 03:06:43;;;;;;;20.00;13.35;;;;;;;9.63;100.00;99642.72;5069140;28;20075;-73
2023/11/11 03:09:12;;;;;;;20.88;12.35;;;;;;;9.82;100.00;99688.78;5069008;28;20032;-74
2023/11/11 03:11:38;;;;;;;17.33;12.77;;;;;;;9.80;100.00;99689.56;5069709;28;20036;-71
2023/11/11 03:14:04;;;;;;;16.80;12.48;;;;;;;9.27;100.00;99595.38;5025816;28;20032;-70
2023/11/11 03:16:39;;;;;;;17.88;13.05;;;;;;;9.81;100.00;99701.63;5069367;28;20140;-71
2023/11/11 03:19:06;;;;;;;18.90;12.55;;;;;;;9.83;100.00;99690.53;5065363;28;20059;-70
2023/11/11 03:21:32;;;;;;;16.92;11.50;;;;;;;9.84;100.00;99684.56;5068671;28;20099;-72
2023/11/11 03:23:58;;;;;;;17.52;12.82;;;;;;;9.70;100.00;99647.22;5069134;28;20033;-71
2023/11/11 03:26:24;;;;;;;18.08;12.20;;;;;;;9.75;100.00;99660.22;5067978;28;20063;-71
2023/11/11 03:28:50;;;;;;;18.17;13.23;;;;;;;9.38;100.00;99601.69;5068996;28;20403;-72
2023/11/11 03:31:17;;;;;;;19.83;13.18;;;;;;;9.93;100.00;99665.88;5069104;28;20135;-72
2023/11/11 03:33:43;;;;;;;17.25;12.48;;;;;;;10.08;100.00;99669.69;5069203;28;20127;-75
2023/11/11 03:36:08;;;;;;;18.13;12.32;;;;;;;9.68;100.00;99584.44;5068400;28;20127;-71
2023/11/11 03:38:34;;;;;;;17.27;12.10;;;;;;;10.19;100.00;99671.72;5069064;28;20024;-71
2023/11/11 03:40:59;;;;;;;16.92;12.45;;;;;;;10.09;100.00;99667.13;5068686;28;20024;-71
2023/11/11 03:43:25;;;;;;;16.55;11.98;;;;;;;9.73;100.00;99672.19;5069606;28;20119;-70
2023/11/11 03:45:50;;;;;;;19.90;12.80;;;;;;;9.69;100.00;99660.91;5068826;28;20497;-72
2023/11/11 03:48:15;;;;;;;18.58;12.30;;;;;;;9.65;100.00;99653.94;5068617;28;20482;-71
2023/11/11 03:50:41;;;;;;;19.38;13.60;;;;;;;9.64;100.00;99644.47;5067070;28;20478;-73
2023/11/11 03:53:06;;;;;;;18.13;12.60;;;;;;;9.59;100.00;99623.72;5060143;28;20029;-71
2023/11/11 03:55:32;;;;;;;19.30;12.95;;;;;;;9.75;100.00;99637.03;5069229;28;20458;-72
2023/11/11 03:57:57;;;;;;;17.73;12.85;;;;;;;9.80;100.00;99644.03;5068536;28;20122;-71
2023/11/11 04:00:23;;;;;;;20.23;12.45;;;;;;;9.80;100.00;99619.97;5068661;28;20032;-72
2023/11/11 04:02:48;;;;;;;20.73;12.82;;;;;;;9.44;100.00;99546.00;5069107;28;20040;-71
2023/11/11 04:05:15;;;;;;;17.27;12.52;;;;;;;9.78;100.00;99598.44;5068597;28;20028;-72
2023/11/11 04:07:40;;;;;;;18.42;12.52;;;;;;;9.90;100.00;99606.47;5067691;28;20509;-71
2023/11/11 04:10:06;;;;;;;17.50;12.13;;;;;;;9.80;100.00;99581.31;5068367;28;20029;-70
2023/11/11 04:12:32;;;;;;;18.48;12.68;;;;;;;9.87;100.00;99603.84;5068838;28;20024;-75
2023/11/11 04:14:57;;;;;;;18.23;13.43;;;;;;;9.59;100.00;99538.66;5028462;28;20049;-74
2023/11/11 04:17:23;;;;;;;20.58;11.98;;;;;;;9.96;100.00;99585.16;5068745;28;20463;-71
2023/11/11 04:19:48;;;;;;;18.25;12.55;;;;;;;10.02;100.00;99578.44;5067985;28;20032;-71
2023/11/11 04:22:14;;;;;;;18.40;12.30;;;;;;;10.09;100.00;99588.91;5068505;28;20042;-71
2023/11/11 04:24:40;;;;;;;20.10;12.23;;;;;;;10.00;100.00;99589.53;5068044;28;20068;-73
2023/11/11 04:27:06;;;;;;;16.95;11.82;;;;;;;9.82;100.00;99575.34;5069472;28;20036;-71
2023/11/11 04:29:32;;;;;;;19.88;12.48;;;;;;;9.72;100.00;99557.91;5068056;28;20028;-70
2023/11/11 04:31:58;;;;;;;21.45;12.45;;;;;;;9.81;100.00;99586.50;5068116;28;20037;-71
2023/11/11 04:34:25;;;;;;;23.15;13.50;;;;;;;9.46;100.00;99555.53;5068128;28;20048;-72
2023/11/11 04:36:51;;;;;;;19.63;13.02;;;;;;;9.58;100.00;99583.31;5051023;28;20029;-71
2023/11/11 04:39:19;;;;;;;19.30;13.25;;;;;;;9.50;100.00;99562.50;5071473;28;20044;-72
2023/11/11 04:41:47;;;;;;;20.60;13.07;;;;;;;9.55;100.00;99580.66;5072920;28;20072;-71
2023/11/11 04:44:12;;;;;;;20.50;13.77;;;;;;;9.54;100.00;99584.06;5071633;28;20033;-71
2023/11/11 04:46:38;;;;;;;21.25;14.48;;;;;;;9.47;100.00;99579.56;5072048;28;20037;-71
2023/11/11 04:49:03;;;;;;;21.98;13.90;;;;;;;9.49;100.00;99578.78;5071311;28;20024;-71
2023/11/11 04:51:29;;;;;;;20.55;13.23;;;;;;;9.52;100.00;99562.53;5072261;28;20474;-73
2023/11/11 04:53:54;;;;;;;21.27;13.65;;;;;;;9.49;100.00;99540.13;5070985;28;20037;-74
2023/11/11 04:56:20;;;;;;;23.45;13.30;;;;;;;9.53;100.00;99517.91;5072359;28;20383;-72
2023/11/11 04:58:47;;;;;;;18.88;12.63;;;;;;;9.13;100.00;99444.75;5072011;28;20024;-72
2023/11/11 05:01:12;;;;;;;20.88;13.60;;;;;;;9.68;100.00;99525.16;5071655;28;20070;-71
2023/11/11 05:03:40;;;;;;;25.50;14.00;;;;;;;9.92;100.00;99565.25;5071297;28;20029;-72
2023/11/11 05:06:06;;;;;;;22.05;13.23;;;;;;;9.67;100.00;99523.41;5070706;28;20052;-72
2023/11/11 05:08:31;;;;;;;22.60;13.63;;;;;;;9.76;100.00;99558.84;5069948;28;20482;-72
2023/11/11 05:10:57;;;;;;;23.17;13.80;;;;;;;9.39;100.00;99499.50;5071997;28;20036;-72
2023/11/11 05:13:23;;;;;;;17.92;12.55;;;;;;;9.78;100.00;99568.38;5071606;28;20024;-72
2023/11/11 05:15:59;;;;;;;23.75;12.35;;;;;;;9.87;100.00;99572.91;5071381;28;20043;-74
2023/11/11 05:18:25;;;;;;;17.92;12.10;;;;;;;9.79;100.00;99569.25;5016185;28;20601;-71
2023/11/11 05:20:51;;;;;;;19.33;12.07;;;;;;;9.80;100.00;99589.91;5066657;28;20052;-70
2023/11/11 05:23:17;;;;;;;21.88;13.23;;;;;;;9.85;100.00;99596.03;5071555;28;20442;-74
2023/11/11 05:25:42;;;;;;;21.48;13.48;;;;;;;9.91;100.00;99595.34;5071552;28;20166;-71
2023/11/11 05:28:08;;;;;;;19.10;13.98;;;;;;;9.90;100.00;99595.31;5071102;28;20024;-76
2023/11/11 05:30:33;;;;;;;20.88;12.80;;;;;;;9.79;100.00;99595.88;5070990;28;20123;-74
2023/11/11 05:32:59;;;;;;;18.65;11.60;;;;;;;9.55;100.00;99571.22;5070872;28;20059;-74
2023/11/11 05:35:24;;;;;;;20.45;13.55;;;;;;;9.54;100.00;99602.09;5071709;28;20021;-72
2023/11/11 05:37:50;;;;;;;21.15;13.52;;;;;;;9.20;100.00;99562.56;5071355;28;20058;-75
2023/11/11 05:40:18;;;;;;;23.45;13.93;;;;;;;9.23;100.00;99570.34;5071761;28;20020;-71
2023/11/11 05:42:47;;;;;;;20.13;13.82;;;;;;;9.21;100.00;99590.06;5071148;28;20036;-71
2023/11/11 05:45:17;;;;;;;19.27;12.40;;;;;;;9.35;100.00;99598.16;5058209;28;20028;-72
2023/11/11 05:47:46;;;;;;;17.35;12.57;;;;;;;9.47;100.00;99603.66;5071250;28;20146;-72
2023/11/11 05:50:13;;;;;;;21.07;13.30;;;;;;;9.12;100.00;99509.94;5066028;28;20025;-75
2023/11/11 05:52:39;;;;;;;18.77;11.68;;;;;;;9.62;100.00;99564.53;5071446;28;20266;-72
2023/11/11 05:55:08;;;;;;;19.42;12.05;;;;;;;9.62;100.00;99559.38;5049236;28;20571;-73
2023/11/11 05:57:34;;;;;;;18.90;12.10;;;;;;;9.75;100.00;99567.44;5070527;28;20043;-72
2023/11/11 05:59:59;;;;;;;17.45;12.65;;;;;;;9.69;100.00;99576.75;5070670;28;20033;-72
2023/11/11 06:02:25;;;;;;;17.75;12.23;;;;;;;9.15;100.00;99505.75;5070144;28;20033;-75
2023/11/11 06:04:50;;;;;;;19.67;13.00;;;;;;;9.16;100.00;99499.78;5070635;28;20038;-72
2023/11/11 06:07:16;;;;;;;19.15;12.82;;;;;;;9.57;100.00;99557.50;5070586;28;20115;-73
2023/11/11 06:09:43;;;;;;;17.40;11.98;;;;;;;9.78;100.00;99573.53;5071103;28;20488;-71
2023/11/11 06:12:08;;;;;;;20.38;13.88;;;;;;;9.87;100.00;99562.59;5034879;28;20036;-71
2023/11/11 06:14:34;;;;;;;21.20;12.88;;;;;;;9.94;100.00;99561.03;5070365;28;20390;-71
2023/11/11 06:16:59;;;;;;;24.98;14.30;;;;;;;9.77;100.00;99519.34;5070450;28;20075;-72
2023/11/11 06:19:26;;;;;;;22.23;13.32;;;;;;;9.70;100.00;99474.53;5070701;28;20029;-75
2023/11/11 06:21:52;;;;;;;20.15;12.75;;;;;;;10.03;100.00;99522.56;5071021;28;20024;-73
2023/11/11 06:24:18;;;;;;;20.92;14.35;;;;;;;10.09;100.00;99538.19;5070426;28;20067;-72
2023/11/11 06:26:43;;;;;;;20.55;13.18;;;;;;;10.02;100.00;99538.91;5070184;28;20036;-76
2023/11/11 06:29:09;;;;;;;16.67;12.82;;;;;;;10.03;100.00;99517.41;5070118;28;20077;-70
2023/11/11 06:31:35;;;;;;;17.05;12.23;;;;;;;10.03;100.00;99509.66;5070241;28;20027;-71
2023/11/11 06:34:01;;;;;;;25.58;12.77;;;;;;;10.06;100.00;99496.84;5070121;28;20190;-70
2023/11/11 06:36:26;;;;;;;17.50;12.48;;;;;;;10.26;100.00;99520.53;5070842;28;20486;-72
2023/11/11 06:38:52;;;;;;;18.00;13.15;;;;;;;10.17;100.00;99485.09;5069994;28;20029;-72
2023/11/11 06:41:19;;;;;;;19.00;12.35;;;;;;;10.31;100.00;99513.75;5070596;28;20097;-71
2023/11/11 06:43:45;;;;;;;20.13;12.18;;;;;;;10.34;100.00;99518.13;5069414;28;20493;-71
2023/11/11 06:46:11;;;;;;;20.75;13.27;;;;;;;10.23;100.00;99511.84;5065288;28;20032;-70
2023/11/11 06:48:38;;;;;;;29.63;16.80;;;;;;;10.09;100.00;99545.91;5051889;28;20389;-71
2023/11/11 06:51:04;;;;;;;17.83;13.15;;;;;;;9.79;100.00;99536.59;5069689;28;20040;-71
2023/11/11 06:53:29;;;;;;;18.00;12.93;;;;;;;9.72;100.00;99532.16;5069909;28;20696;-70
2023/11/11 06:55:55;;;;;;;18.20;12.77;;;;;;;9.36;100.00;99463.38;5070478;28;20112;-75
2023/11/11 06:58:20;;;;;;;20.42;13.43;;;;;;;9.37;100.00;99473.72;5069123;28;20465;-70
2023/11/11 07:00:46;;;;;;;20.17;12.73;;;;;;;9.84;100.00;99537.63;5069296;28;20028;-72
2023/11/11 07:03:12;;;;;;;20.60;13.20;;;;;;;9.87;100.00;99524.78;5068888;28;20035;-71
2023/11/11 07:05:37;;;;;;;20.92;13.23;;;;;;;9.83;100.00;99519.50;5069842;28;20035;-71
2023/11/11 07:08:05;;;;;;;19.40;12.30;;;;;;;9.96;100.00;99534.44;5069318;28;20025;-71
2023/11/11 07:10:30;;;;;;;18.27;12.07;;;;;;;10.09;100.00;99527.88;5069178;28;20154;-75
2023/11/11 07:12:56;;;;;;;16.90;12.52;;;;;;;10.27;100.00;99524.84;5069875;28;20115;-71
2023/11/11 07:15:22;;;;;;;21.10;12.85;;;;;;;10.17;100.00;99495.41;5069081;28;20414;-71
2023/11/11 07:17:48;;;;;;;17.92;12.52;;;;;;;10.39;100.00;99520.84;5069624;28;20061;-73
2023/11/11 07:20:19;;;;;;;18.48;14.00;;;;;;;10.46;100.00;99527.88;5062292;28;20021;-70
2023/11/11 07:22:45;;;;;;;21.27;13.68;;;;;;;10.15;100.00;99475.56;5065064;28;20037;-70
2023/11/11 07:25:11;;;;;;;17.27;12.50;;;;;;;10.48;100.00;99532.25;5069327;28;20079;-71
2023/11/11 07:27:36;;;;;;;19.48;13.15;;;;;;;10.52;100.00;99521.13;5068971;28;20125;-70
2023/11/11 07:30:04;;;;;;;20.70;13.32;;;;;;;10.13;100.00;99477.22;5069027;28;20017;-75
2023/11/11 07:32:30;;;;;;;18.27;11.82;;;;;;;10.20;100.00;99489.44;5068799;28;20029;-69
2023/11/11 07:34:57;;;;;;;21.50;12.68;;;;;;;10.55;100.00;99532.38;5069214;28;20741;-70
2023/11/11 07:37:24;;;;;;;18.88;12.88;;;;;;;10.46;100.00;99515.00;5069643;28;20398;-69
2023/11/11 07:39:50;;;;;;;21.48;13.05;;;;;;;10.44;100.00;99507.22;5068609;28;20500;-69
2023/11/11 07:42:15;;;;;;;17.73;12.15;;;;;;;10.64;100.00;99517.06;5069011;28;20032;-69
2023/11/11 07:44:41;;;;;;;20.02;13.55;;;;;;;10.36;100.00;99482.94;5069303;28;20036;-69
2023/11/11 07:47:07;;;;;;;21.55;13.70;;;;;;;10.68;100.00;99524.94;5068768;28;20455;-71
2023/11/11 07:49:34;;;;;;;24.50;13.15;;;;;;;10.81;100.00;99540.69;5068927;28;20501;-69
2023/11/11 07:52:01;;;;;;;20.85;13.40;;;;;;;10.42;100.00;99453.81;5069253;28;20029;-69
2023/11/11 07:54:27;;;;;;;19.80;14.07;;;;;;;10.82;100.00;99514.88;5032853;28;20112;-70
2023/11/11 07:56:52;;;;;;;21.02;13.45;;;;;;;10.68;100.00;99493.09;5068473;28;20499;-71
2023/11/11 07:59:18;;;;;;;19.58;14.85;;;;;;;10.71;100.00;99512.94;5069574;28;20039;-69
2023/11/11 08:01:45;;;;;;;19.45;14.45;;;;;;;10.33;100.00;99445.03;5068601;28;20501;-72
2023/11/11 08:04:11;;;;;;;18.23;12.80;;;;;;;10.56;100.00;99479.94;5067719;28;20093;-71
2023/11/11 08:06:37;;;;;;;20.50;14.27;;;;;;;10.20;100.00;99394.88;5067692;28;20028;-72
2023/11/11 08:09:03;;;;;;;19.52;13.25;;;;;;;10.68;100.00;99459.53;5068974;28;20101;-69
2023/11/11 08:11:28;;;;;;;24.52;14.48;;;;;;;10.67;100.00;99447.47;5064935;28;20024;-75
2023/11/11 08:13:54;;;;;;;21.98;15.27;;;;;;;10.79;100.00;99455.44;5069203;28;20040;-70
2023/11/11 08:16:19;;;;;;;22.20;14.85;;;;;;;10.76;100.00;99449.34;5073350;28;20113;-70
2023/11/11 08:18:48;;;;;;;19.38;14.90;;;;;;;10.76;100.00;99442.47;5073414;28;20048;-71
2023/11/11 08:21:14;;;;;;;23.48;14.23;;;;;;;10.72;100.00;99432.06;5073108;28;20035;-70
2023/11/11 08:23:39;;;;;;;19.45;14.38;;;;;;;10.89;100.00;99445.28;5034622;28;20450;-71
2023/11/11 08:26:06;;;;;;;28.13;15.90;;;;;;;10.98;100.00;99428.25;5073328;28;20047;-77
2023/11/11 08:28:31;;;;;;;22.00;15.23;;;;;;;11.07;100.00;99424.13;5073047;28;20047;-73
2023/11/11 08:30:57;;;;;;;24.73;15.95;;;;;;;10.78;100.00;99371.09;5073375;28;20493;-70
2023/11/11 08:33:22;;;;;;;20.27;15.32;;;;;;;11.14;100.00;99420.78;5073613;28;20048;-71
2023/11/11 08:35:50;;;;;;;22.92;16.25;;;;;;;11.07;100.00;99414.63;5072813;28;20071;-70
2023/11/11 08:38:15;;;;;;;21.00;15.77;;;;;;;11.15;100.00;99427.69;5072769;28;20065;-73
2023/11/11 08:40:41;;;;;;;26.05;18.80;;;;;;;11.02;100.00;99455.00;5072718;28;20104;-70
2023/11/11 08:43:07;;;;;;;22.50;15.40;;;;;;;10.90;100.00;99445.31;5073427;28;20031;-69
2023/11/11 08:45:32;;;;;;;24.48;17.02;;;;;;;10.96;100.00;99429.94;5072551;28;20040;-70
2023/11/11 08:47:59;;;;;;;22.33;16.92;;;;;;;10.94;100.00;99441.06;5072509;28;20040;-70
2023/11/11 08:50:24;;;;;;;26.55;17.52;;;;;;;10.94;100.00;99452.28;5072441;28;20625;-74
2023/11/11 08:52:50;;;;;;;25.20;17.85;;;;;;;10.91;100.00;99446.19;5073265;28;20095;-70
2023/11/11 08:55:15;;;;;;;23.85;17.25;;;;;;;10.94;100.00;99451.41;5072713;28;20039;-70
2023/11/11 08:57:40;;;;;;;23.92;17.25;;;;;;;10.84;100.00;99459.00;5072631;28;20115;-74
2023/11/11 09:00:12;;;;;;;27.35;17.35;;;;;;;10.87;100.00;99467.66;5067676;28;20040;-72
2023/11/11 09:02:38;;;;;;;32.38;17.48;;;;;;;10.91;100.00;99466.84;5070915;28;20108;-71
2023/11/11 09:05:06;;;;;;;23.50;15.75;;;;;;;10.89;100.00;99465.94;5073070;28;20055;-71
2023/11/11 09:07:34;;;;;;;23.65;15.07;;;;;;;10.79;100.00;99460.63;5054208;28;20150;-70
2023/11/11 09:10:00;;;;;;;26.48;15.93;;;;;;;10.88;100.00;99446.13;5073075;28;20098;-70
2023/11/11 09:12:26;;;;;;;24.05;15.88;;;;;;;10.86;100.00;99412.53;5072438;28;20039;-70
2023/11/11 09:14:52;;;;;;;25.05;15.98;;;;;;;10.50;100.00;99347.34;5072184;28;20047;-70
2023/11/11 09:17:19;;;;;;;23.25;16.85;;;;;;;10.85;100.00;99390.13;5072239;28;20490;-70
2023/11/11 09:19:45;;;;;;;21.65;16.65;;;;;;;11.02;100.00;99415.41;5071732;28;20123;-70
2023/11/11 09:22:11;;;;;;;22.08;15.80;;;;;;;10.97;100.00;99438.56;5072830;28;20039;-71
2023/11/11 09:24:37;;;;;;;23.30;16.55;;;;;;;10.97;100.00;99446.31;5071196;28;20765;-71
2023/11/11 09:27:02;;;;;;;23.88;16.92;;;;;;;11.04;100.00;99450.75;5072394;28;20068;-72
2023/11/11 09:29:28;;;;;;;23.40;16.45;;;;;;;11.07;100.00;99427.56;5072080;28;20093;-70
2023/11/11 09:31:53;;;;;;;21.85;16.77;;;;;;;11.16;100.00;99420.00;5072599;28;20033;-71
2023/11/11 09:34:19;;;;;;;25.25;16.92;;;;;;;10.99;100.00;99357.69;5071412;28;20474;-70
2023/11/11 09:36:44;;;;;;;29.27;19.27;;;;;;;11.27;100.00;99365.91;5072308;28;20025;-69
2023/11/11 09:39:13;;;;;;;24.05;18.17;;;;;;;11.22;100.00;99361.50;5071674;28;20078;-70
2023/11/11 09:41:39;;;;;;;27.20;19.38;;;;;;;10.90;100.00;99297.28;5071368;28;20119;-71
2023/11/11 09:44:05;;;;;;;25.48;19.13;;;;;;;11.27;100.00;99386.56;5072378;28;20059;-71
2023/11/11 09:46:32;;;;;;;25.90;17.50;;;;;;;11.32;100.00;99428.84;5019318;28;20051;-70
2023/11/11 09:48:58;;;;;;;28.30;19.35;;;;;;;10.74;100.00;99351.22;5071448;28;20024;-72
2023/11/11 09:51:30;;;;;;;27.42;18.00;;;;;;;10.84;100.00;99365.16;5066833;28;20055;-70
2023/11/11 09:53:58;;;;;;;26.13;18.77;;;;;;;11.23;100.00;99423.53;5053648;28;20020;-70
2023/11/11 09:56:25;;;;;;;23.38;18.90;;;;;;;11.27;100.00;99412.41;5062586;28;20032;-70
2023/11/11 09:58:54;;;;;;;29.98;20.05;;;;;;;10.97;100.00;99351.63;5071349;28;20084;-71
2023/11/11 10:01:19;;;;;;;31.80;22.75;;;;;;;11.31;100.00;99396.13;5071144;28;20414;-74
2023/11/11 10:03:45;;;;;;;35.10;26.13;;;;;;;11.28;100.00;99402.94;5071574;28;20024;-70
2023/11/11 10:06:33;;;;;;;43.50;30.60;;;;;;;10.45;100.00;99320.56;5024011;28;20054;-69
2023/11/11 10:09:04;;;;;;;45.22;31.08;;;;;;;10.61;100.00;99404.31;5017648;28;20602;-70
2023/11/11 10:11:32;;;;;;;66.13;30.70;;;;;;;9.92;100.00;99359.91;4996829;28;20052;-69
2023/11/11 10:13:58;;;;;;;40.72;28.30;;;;;;;9.79;100.00;99391.38;5011785;28;20041;-69
2023/11/11 10:16:27;;;;;;;40.38;27.55;;;;;;;9.73;100.00;99368.91;5028614;28;20083;-71
2023/11/11 10:18:54;;;;;;;58.30;35.37;;;;;;;9.40;100.00;99338.97;5024272;28;20112;-74
2023/11/11 10:21:20;;;;;;;108.07;52.25;;;;;;;9.44;100.00;99363.09;5029257;28;20037;-72
2023/11/11 10:23:50;;;;;;;42.90;27.83;;;;;;;9.34;100.00;99349.13;5012041;28;20055;-69
2023/11/11 10:26:16;;;;;;;39.15;25.85;;;;;;;9.41;100.00;99343.28;5028097;28;20042;-70
2023/11/11 10:28:47;;;;;;;37.30;26.40;;;;;;;9.43;100.00;99313.28;5028219;28;20041;-72
2023/11/11 10:31:13;;;;;;;37.75;25.92;;;;;;;8.86;100.00;99170.34;5024056;28;20036;-71
2023/11/11 10:33:39;;;;;;;36.53;24.75;;;;;;;9.09;100.00;99191.47;5025927;28;20061;-71
2023/11/11 10:36:07;;;;;;;41.90;26.02;;;;;;;9.62;100.00;99277.63;5028348;28;20446;-74
2023/11/11 10:38:32;;;;;;;42.65;27.73;;;;;;;9.64;100.00;99260.50;5067381;28;20502;-71
2023/11/11 10:40:58;;;;;;;42.85;26.13;;;;;;;9.75;100.00;99258.16;5071019;28;20090;-73
2023/11/11 10:43:26;;;;;;;49.40;32.25;;;;;;;9.86;100.00;99252.34;5070254;28;20068;-73
2023/11/11 10:45:55;;;;;;;42.33;29.85;;;;;;;10.00;100.00;99231.13;5070269;28;20040;-71
2023/11/11 10:48:25;;;;;;;42.25;29.73;;;;;;;10.15;100.00;99239.16;5070383;28;20108;-71
2023/11/11 10:50:51;;;;;;;41.08;26.75;;;;;;;10.22;100.00;99249.59;5070480;28;20029;-71
2023/11/11 10:53:18;;;;;;;39.53;26.60;;;;;;;10.14;100.00;99232.28;5070444;28;20040;-71
2023/11/11 10:55:46;;;;;;;40.55;26.55;;;;;;;10.07;100.00;99217.53;5070091;28;20033;-71
2023/11/11 10:58:17;;;;;;;39.38;27.50;;;;;;;10.11;100.00;99242.53;5070298;28;20028;-71
2023/11/11 11:00:44;;;;;;;34.17;25.45;;;;;;;10.06;100.00;99231.25;5069922;28;20090;-71
2023/11/11 11:03:10;;;;;;;37.85;25.67;;;;;;;9.95;100.00;99236.19;5034324;28;20059;-74
2023/11/11 11:05:49;;;;;;;35.92;24.83;;;;;;;9.85;100.00;99270.38;5069865;28;20409;-72
2023/11/11 11:08:38;;;;;;;37.45;25.42;;;;;;;9.76;100.00;99253.00;5062153;28;20408;-72